createdAt,value
2019-06-26T00:00:32.156Z,23.00
2019-06-26T00:03:03.084Z,23.00
2019-06-26T00:05:34.288Z,23.00
2019-06-26T00:08:05.364Z,22.90
2019-06-26T00:10:36.408Z,22.90
2019-06-26T00:13:07.459Z,22.80
2019-06-26T00:15:38.557Z,22.80
2019-06-26T00:18:09.623Z,22.80
2019-06-26T00:20:40.539Z,22.80
2019-06-26T00:23:11.931Z,22.80
2019-06-26T00:25:42.987Z,22.80
2019-06-26T00:28:15.490Z,22.80
2019-06-26T00:30:46.592Z,22.80
2019-06-26T00:33:17.864Z,22.80
2019-06-26T00:35:49.085Z,22.80
2019-06-26T00:38:20.044Z,22.70
2019-06-26T00:40:51.456Z,22.70
2019-06-26T00:43:22.697Z,22.70
2019-06-26T00:45:53.969Z,22.70
2019-06-26T00:48:25.027Z,22.70
2019-06-26T00:50:57.208Z,22.70
2019-06-26T00:53:28.704Z,22.70
2019-06-26T00:55:59.919Z,22.70
2019-06-26T00:58:31.504Z,22.70
2019-06-26T01:01:02.752Z,22.70
2019-06-26T01:03:34.036Z,22.70
2019-06-26T01:06:05.216Z,22.70
2019-06-26T01:08:35.929Z,22.70
2019-06-26T01:11:07.263Z,22.60
2019-06-26T01:13:38.291Z,22.60
2019-06-26T01:16:09.848Z,22.60
2019-06-26T01:18:41.096Z,22.60
2019-06-26T01:21:12.083Z,22.60
2019-06-26T01:23:43.118Z,22.60
2019-06-26T01:26:14.124Z,22.60
2019-06-26T01:28:45.172Z,22.60
2019-06-26T01:31:16.307Z,22.50
2019-06-26T01:33:47.346Z,22.50
2019-06-26T01:36:18.280Z,22.50
2019-06-26T01:38:49.491Z,22.50
2019-06-26T01:41:20.915Z,22.50
2019-06-26T01:43:52.128Z,22.50
2019-06-26T01:46:23.593Z,22.40
2019-06-26T01:48:54.611Z,22.40
2019-06-26T01:51:25.941Z,22.40
2019-06-26T01:53:56.875Z,22.40
2019-06-26T01:56:29.152Z,22.30
2019-06-26T01:59:00.102Z,22.30
2019-06-26T02:01:31.679Z,22.20
2019-06-26T02:04:02.927Z,22.20
2019-06-26T02:06:34.595Z,22.20
2019-06-26T02:09:06.519Z,22.20
2019-06-26T02:11:37.455Z,22.10
2019-06-26T02:14:08.695Z,22.00
2019-06-26T02:16:39.859Z,22.00
2019-06-26T02:19:12.740Z,22.00
2019-06-26T02:21:43.987Z,21.90
2019-06-26T02:24:15.021Z,21.90
2019-06-26T02:26:46.503Z,21.90
2019-06-26T02:29:17.703Z,21.80
2019-06-26T02:31:48.688Z,21.80
2019-06-26T02:34:20.007Z,21.70
2019-06-26T02:36:50.957Z,21.60
2019-06-26T02:39:22.371Z,21.60
2019-06-26T02:41:53.255Z,21.50
2019-06-26T02:44:24.515Z,21.50
2019-06-26T02:47:13.613Z,21.40
2019-06-26T02:49:28.966Z,21.50
2019-06-26T02:51:59.913Z,21.50
2019-06-26T02:54:30.969Z,21.40
2019-06-26T02:57:01.959Z,21.40
2019-06-26T02:59:33.107Z,21.40
2019-06-26T03:02:04.408Z,21.40
2019-06-26T03:04:35.643Z,21.40
2019-06-26T03:07:06.507Z,21.40
2019-06-26T03:09:37.459Z,21.40
2019-06-26T03:12:08.685Z,21.40
2019-06-26T03:14:39.839Z,21.50
2019-06-26T03:17:10.810Z,21.50
2019-06-26T03:19:42.031Z,21.40
2019-06-26T03:22:13.176Z,21.50
2019-06-26T03:24:44.143Z,21.50
2019-06-26T03:27:15.069Z,21.50
2019-06-26T03:29:46.438Z,21.60
2019-06-26T03:32:17.732Z,21.60
2019-06-26T03:34:48.756Z,21.60
2019-06-26T03:37:19.615Z,21.70
2019-06-26T03:39:50.921Z,21.70
2019-06-26T03:42:21.967Z,21.70
2019-06-26T03:44:53.512Z,21.80
2019-06-26T03:47:24.831Z,21.80
2019-06-26T03:49:55.899Z,21.90
2019-06-26T03:52:26.891Z,21.90
2019-06-26T03:54:58.463Z,21.90
2019-06-26T03:57:29.444Z,22.00
2019-06-26T04:00:00.607Z,22.00
2019-06-26T04:02:31.768Z,22.10
2019-06-26T04:05:03.485Z,22.10
2019-06-26T04:07:34.689Z,22.20
2019-06-26T04:10:06.675Z,22.30
2019-06-26T04:12:38.003Z,22.30
2019-06-26T04:15:09.748Z,22.40
2019-06-26T04:17:41.147Z,22.50
2019-06-26T04:20:12.580Z,22.60
2019-06-26T04:22:46.596Z,22.70
2019-06-26T04:25:17.081Z,22.80
2019-06-26T04:27:48.047Z,22.90
2019-06-26T04:30:19.425Z,23.00
2019-06-26T04:32:50.831Z,23.00
2019-06-26T04:35:21.831Z,23.10
2019-06-26T04:37:53.228Z,23.30
2019-06-26T04:40:24.462Z,23.30
2019-06-26T04:42:55.680Z,23.40
2019-06-26T04:45:26.744Z,23.50
2019-06-26T04:47:58.267Z,23.60
2019-06-26T04:50:29.257Z,23.80
2019-06-26T04:53:00.875Z,23.90
2019-06-26T04:55:31.867Z,24.00
2019-06-26T04:58:03.054Z,24.10
2019-06-26T05:00:34.262Z,24.20
2019-06-26T05:03:05.559Z,24.30
2019-06-26T05:05:39.990Z,24.50
2019-06-26T05:08:09.367Z,24.60
2019-06-26T05:10:40.775Z,24.80
2019-06-26T05:13:11.867Z,25.00
2019-06-26T05:15:43.159Z,25.20
2019-06-26T05:18:14.151Z,25.50
2019-06-26T05:20:45.546Z,25.80
2019-06-26T05:23:16.530Z,26.00
2019-06-26T05:25:48.187Z,26.30
2019-06-26T05:28:19.388Z,26.60
2019-06-26T05:30:50.737Z,26.90
2019-06-26T05:33:21.933Z,27.20
2019-06-26T05:35:53.067Z,27.40
2019-06-26T05:38:24.155Z,27.70
2019-06-26T05:40:55.427Z,28.00
2019-06-26T05:43:26.727Z,28.10
2019-06-26T05:45:58.275Z,28.30
2019-06-26T05:48:30.943Z,28.60
2019-06-26T05:51:02.237Z,28.90
2019-06-26T05:53:33.343Z,29.10
2019-06-26T05:56:04.620Z,29.30
2019-06-26T05:58:35.752Z,29.50
2019-06-26T06:01:06.961Z,29.60
2019-06-26T06:03:38.023Z,29.80
2019-06-26T06:06:09.391Z,30.00
2019-06-26T06:08:40.831Z,30.20
2019-06-26T06:11:11.712Z,30.30
2019-06-26T06:13:42.947Z,30.50
2019-06-26T06:16:14.023Z,30.70
2019-06-26T06:18:45.191Z,30.80
2019-06-26T06:21:16.755Z,31.10
2019-06-26T06:23:47.995Z,31.20
2019-06-26T06:26:19.644Z,31.20
2019-06-26T06:28:50.763Z,31.40
2019-06-26T06:31:21.768Z,31.70
2019-06-26T06:33:53.087Z,32.00
2019-06-26T06:36:24.523Z,32.20
2019-06-26T06:38:55.763Z,32.40
2019-06-26T06:41:26.867Z,32.50
2019-06-26T06:43:58.583Z,32.80
2019-06-26T06:46:29.619Z,33.10
2019-06-26T06:49:00.723Z,33.40
2019-06-26T06:51:32.008Z,33.60
2019-06-26T06:54:03.255Z,33.90
2019-06-26T06:56:34.671Z,34.30
2019-06-26T06:59:06.054Z,34.30
2019-06-26T07:01:37.115Z,34.60
2019-06-26T07:04:08.263Z,34.80
2019-06-26T07:06:39.415Z,35.10
2019-06-26T07:09:10.421Z,35.20
2019-06-26T07:11:41.303Z,35.40
2019-06-26T07:14:12.588Z,35.60
2019-06-26T07:16:43.783Z,35.80
2019-06-26T07:19:14.860Z,36.10
2019-06-26T07:21:46.987Z,36.10
2019-06-26T07:24:18.072Z,36.40
2019-06-26T07:26:49.763Z,36.30
2019-06-26T07:29:20.915Z,36.70
2019-06-26T07:31:52.012Z,36.90
2019-06-26T07:34:22.913Z,37.10
2019-06-26T07:36:54.115Z,37.20
2019-06-26T07:39:25.277Z,37.30
2019-06-26T07:41:56.251Z,37.40
2019-06-26T07:44:27.473Z,37.60
2019-06-26T07:46:58.620Z,37.80
2019-06-26T07:49:29.739Z,37.70
2019-06-26T07:52:00.884Z,37.90
2019-06-26T07:54:32.146Z,38.10
2019-06-26T07:57:03.164Z,38.10
2019-06-26T07:59:34.071Z,38.30
2019-06-26T08:02:05.332Z,38.50
2019-06-26T08:04:36.592Z,38.60
2019-06-26T08:07:08.003Z,38.70
2019-06-26T08:09:39.003Z,39.00
2019-06-26T08:12:10.983Z,39.10
2019-06-26T08:14:43.231Z,39.20
2019-06-26T08:17:14.521Z,39.50
2019-06-26T08:19:45.680Z,39.50
2019-06-26T08:22:18.115Z,39.70
2019-06-26T08:24:49.469Z,39.90
2019-06-26T08:27:20.643Z,39.80
2019-06-26T08:29:52.255Z,39.40
2019-06-26T08:32:25.948Z,39.60
2019-06-26T08:34:56.509Z,39.60
2019-06-26T08:37:27.969Z,39.70
2019-06-26T08:39:58.904Z,39.90
2019-06-26T08:42:30.111Z,40.00
2019-06-26T08:45:01.509Z,40.00
2019-06-26T08:47:33.268Z,40.30
2019-06-26T08:50:05.006Z,40.50
2019-06-26T08:52:36.203Z,40.60
2019-06-26T08:55:07.809Z,40.50
2019-06-26T08:57:39.016Z,40.60
2019-06-26T09:00:10.892Z,40.60
2019-06-26T09:02:42.704Z,40.60
2019-06-26T09:05:15.160Z,40.70
2019-06-26T09:07:46.731Z,40.70
2019-06-26T09:10:19.032Z,40.50
2019-06-26T09:12:50.212Z,40.70
2019-06-26T09:15:21.237Z,41.00
2019-06-26T09:17:52.232Z,41.20
2019-06-26T09:20:32.885Z,41.10
2019-06-26T09:23:03.687Z,41.20
2019-06-26T09:25:34.940Z,41.10
2019-06-26T09:28:06.800Z,41.00
2019-06-26T09:30:39.320Z,41.30
2019-06-26T09:33:10.496Z,41.60
2019-06-26T09:35:41.483Z,41.90
2019-06-26T09:38:13.071Z,42.10
2019-06-26T09:40:44.605Z,42.50
2019-06-26T09:43:15.660Z,42.80
2019-06-26T09:45:47.448Z,42.80
2019-06-26T09:48:18.646Z,43.00
2019-06-26T09:50:50.374Z,42.90
2019-06-26T09:53:22.800Z,42.50
2019-06-26T09:55:53.909Z,42.40
2019-06-26T09:58:25.117Z,42.30
2019-06-26T10:00:56.323Z,42.30
2019-06-26T10:03:27.517Z,42.50
2019-06-26T10:05:58.995Z,42.50
2019-06-26T10:08:29.949Z,42.40
2019-06-26T10:11:01.123Z,42.10
2019-06-26T10:13:32.236Z,42.10
2019-06-26T10:16:04.921Z,41.90
2019-06-26T10:18:35.976Z,41.60
2019-06-26T10:21:07.040Z,41.80
2019-06-26T10:23:39.656Z,42.00
2019-06-26T10:26:10.919Z,42.00
2019-06-26T10:28:41.976Z,42.10
2019-06-26T10:31:13.165Z,42.10
2019-06-26T10:33:43.983Z,42.10
2019-06-26T10:36:15.115Z,42.10
2019-06-26T10:38:46.416Z,42.10
2019-06-26T10:41:17.506Z,42.10
2019-06-26T10:43:48.575Z,42.00
2019-06-26T10:46:20.424Z,41.90
2019-06-26T10:48:51.941Z,41.70
2019-06-26T10:51:23.372Z,42.00
2019-06-26T10:53:55.832Z,42.20
2019-06-26T10:56:28.849Z,42.30
2019-06-26T10:59:00.115Z,42.60
2019-06-26T11:01:31.594Z,42.60
2019-06-26T11:04:03.123Z,42.60
2019-06-26T11:06:37.045Z,42.60
2019-06-26T11:09:08.772Z,42.60
2019-06-26T11:11:39.769Z,42.70
2019-06-26T11:14:11.308Z,42.80
2019-06-26T11:16:42.484Z,42.90
2019-06-26T11:19:14.536Z,42.90
2019-06-26T11:21:45.693Z,42.70
2019-06-26T11:24:20.222Z,42.70
2019-06-26T11:26:51.843Z,42.80
2019-06-26T11:29:25.924Z,42.80
2019-06-26T11:31:57.108Z,43.00
2019-06-26T11:34:29.271Z,42.90
2019-06-26T11:37:04.285Z,42.90
2019-06-26T11:39:34.421Z,43.30
2019-06-26T11:42:06.527Z,43.50
2019-06-26T11:44:37.800Z,43.50
2019-06-26T11:47:09.751Z,43.30
2019-06-26T11:49:41.361Z,43.50
2019-06-26T11:52:12.667Z,43.30
2019-06-26T11:54:58.301Z,43.60
2019-06-26T11:57:18.146Z,43.80
2019-06-26T11:59:49.373Z,43.80
2019-06-26T12:02:20.816Z,44.00
2019-06-26T12:04:52.384Z,44.30
2019-06-26T12:07:24.451Z,44.40
2019-06-26T12:09:55.919Z,44.40
2019-06-26T12:12:27.315Z,44.10
2019-06-26T12:14:58.739Z,43.80
2019-06-26T12:17:29.912Z,43.80
2019-06-26T12:20:17.042Z,44.00
2019-06-26T12:22:33.884Z,43.90
2019-06-26T12:25:06.609Z,44.00
2019-06-26T12:27:37.973Z,44.20
2019-06-26T12:30:11.023Z,44.10
2019-06-26T12:32:47.398Z,44.10
2019-06-26T12:35:14.944Z,44.00
2019-06-26T12:37:46.036Z,44.00
2019-06-26T12:40:20.068Z,44.00
2019-06-26T12:42:55.657Z,44.00
2019-06-26T12:45:26.172Z,44.20
2019-06-26T12:47:58.780Z,44.40
2019-06-26T12:50:35.553Z,44.50
2019-06-26T12:53:02.401Z,44.60
2019-06-26T12:55:34.588Z,44.60
2019-06-26T12:58:13.246Z,44.70
2019-06-26T13:00:39.391Z,44.90
2019-06-26T13:03:11.653Z,44.80
2019-06-26T13:05:43.387Z,45.10
2019-06-26T13:08:14.804Z,45.20
2019-06-26T13:10:50.089Z,45.20
2019-06-26T13:13:19.218Z,45.20
2019-06-26T13:15:51.223Z,45.10
2019-06-26T13:18:22.702Z,45.10
2019-06-26T13:20:53.877Z,45.10
2019-06-26T13:23:25.691Z,44.70
2019-06-26T13:25:56.757Z,44.10
2019-06-26T13:28:27.765Z,43.70
2019-06-26T13:30:58.749Z,43.80
2019-06-26T13:33:29.943Z,43.80
2019-06-26T13:36:01.813Z,43.60
2019-06-26T13:38:32.791Z,43.20
2019-06-26T13:41:03.930Z,42.70
2019-06-26T13:43:35.372Z,42.20
2019-06-26T13:46:07.024Z,41.70
2019-06-26T13:48:38.101Z,41.20
2019-06-26T13:51:10.163Z,40.60
2019-06-26T13:53:41.731Z,40.00
2019-06-26T13:56:13.033Z,39.20
2019-06-26T13:58:44.054Z,38.70
2019-06-26T14:01:15.236Z,38.40
2019-06-26T14:03:46.540Z,37.90
2019-06-26T14:06:17.940Z,37.60
2019-06-26T14:08:49.041Z,37.00
2019-06-26T14:11:21.531Z,36.80
2019-06-26T14:13:52.603Z,36.50
2019-06-26T14:16:25.432Z,36.20
2019-06-26T14:18:57.020Z,36.10
2019-06-26T14:21:28.247Z,35.90
2019-06-26T14:23:59.899Z,35.80
2019-06-26T14:26:31.227Z,35.60
2019-06-26T14:29:02.344Z,35.50
2019-06-26T14:31:33.480Z,35.20
2019-06-26T14:34:04.425Z,35.00
2019-06-26T14:36:35.985Z,35.00
2019-06-26T14:39:08.727Z,34.90
2019-06-26T14:41:40.911Z,34.80
2019-06-26T14:44:12.732Z,34.80
2019-06-26T14:46:44.039Z,34.70
2019-06-26T14:49:15.191Z,34.60
2019-06-26T14:51:47.815Z,34.60
2019-06-26T14:54:19.147Z,34.60
2019-06-26T14:56:50.587Z,34.50
2019-06-26T14:59:22.698Z,34.50
2019-06-26T15:01:53.987Z,34.40
2019-06-26T15:04:25.379Z,34.30
2019-06-26T15:06:56.407Z,34.30
2019-06-26T15:09:27.567Z,34.20
2019-06-26T15:11:59.092Z,34.20
2019-06-26T15:14:30.295Z,34.10
2019-06-26T15:17:01.445Z,34.10
2019-06-26T15:19:32.962Z,34.10
2019-06-26T15:22:04.223Z,34.10
2019-06-26T15:24:35.536Z,34.10
2019-06-26T15:27:07.540Z,34.00
2019-06-26T15:29:38.535Z,34.00
2019-06-26T15:32:09.854Z,33.90
2019-06-26T15:34:40.967Z,33.90
2019-06-26T15:37:14.464Z,33.80
2019-06-26T15:39:47.143Z,33.80
2019-06-26T15:42:19.242Z,33.80
2019-06-26T15:44:50.631Z,33.80
2019-06-26T15:47:21.728Z,33.80
2019-06-26T15:49:52.917Z,33.70
2019-06-26T15:52:24.264Z,33.80
2019-06-26T15:54:55.852Z,33.70
2019-06-26T15:57:27.615Z,33.70
2019-06-26T15:59:59.662Z,33.70
2019-06-26T16:02:30.971Z,33.60
2019-06-26T16:05:02.103Z,33.60
2019-06-26T16:07:35.227Z,33.60
2019-06-26T16:10:07.824Z,33.50
2019-06-26T16:12:39.537Z,33.50
2019-06-26T16:15:10.663Z,33.50
2019-06-26T16:17:58.302Z,33.40
2019-06-26T16:20:30.747Z,33.40
2019-06-26T16:23:03.024Z,33.30
2019-06-26T16:25:34.559Z,33.30
2019-06-26T16:28:06.579Z,33.20
2019-06-26T16:30:38.236Z,33.20
2019-06-26T16:33:09.369Z,33.10
2019-06-26T16:35:41.025Z,33.10
2019-06-26T16:38:11.960Z,33.00
2019-06-26T16:40:44.128Z,32.90
2019-06-26T16:43:15.179Z,32.90
2019-06-26T16:45:48.974Z,32.80
2019-06-26T16:48:20.056Z,32.80
2019-06-26T16:50:52.055Z,32.80
2019-06-26T16:53:23.508Z,32.70
2019-06-26T16:55:55.277Z,32.60
2019-06-26T16:58:27.091Z,32.50
2019-06-26T17:00:59.199Z,32.50
2019-06-26T17:03:30.847Z,32.40
2019-06-26T17:06:01.879Z,32.40
2019-06-26T17:08:34.677Z,32.40
2019-06-26T17:11:06.576Z,32.30
2019-06-26T17:13:37.708Z,32.30
2019-06-26T17:16:10.269Z,32.20
2019-06-26T17:18:42.183Z,32.10
2019-06-26T17:21:15.484Z,32.10
2019-06-26T17:23:46.963Z,32.00
2019-06-26T17:26:19.055Z,32.00
2019-06-26T17:28:53.487Z,31.90
2019-06-26T17:31:24.576Z,31.90
2019-06-26T17:33:55.992Z,31.80
2019-06-26T17:36:28.926Z,31.70
2019-06-26T17:39:00.286Z,31.70
2019-06-26T17:41:32.131Z,31.60
2019-06-26T17:44:03.582Z,31.50
2019-06-26T17:46:35.075Z,31.50
2019-06-26T17:49:06.523Z,31.40
2019-06-26T17:51:37.365Z,31.30
2019-06-26T17:54:08.644Z,31.30
2019-06-26T17:56:39.967Z,31.20
2019-06-26T17:59:11.351Z,31.10
2019-06-26T18:01:42.415Z,31.00
2019-06-26T18:04:13.622Z,30.90
2019-06-26T18:06:44.726Z,30.90
2019-06-26T18:09:15.970Z,30.80
2019-06-26T18:11:48.031Z,30.70
2019-06-26T18:14:20.445Z,30.60
2019-06-26T18:16:51.491Z,30.50
2019-06-26T18:19:23.565Z,30.40
2019-06-26T18:21:54.691Z,30.40
2019-06-26T18:24:26.135Z,30.30
2019-06-26T18:26:57.759Z,30.20
2019-06-26T18:29:28.861Z,30.10
2019-06-26T18:32:01.168Z,30.00
2019-06-26T18:34:32.399Z,30.00
2019-06-26T18:37:03.487Z,29.90
2019-06-26T18:39:35.535Z,29.90
2019-06-26T18:42:07.087Z,29.70
2019-06-26T18:44:38.625Z,29.70
2019-06-26T18:47:09.808Z,29.60
2019-06-26T18:49:46.681Z,29.50
2019-06-26T18:52:17.991Z,29.40
2019-06-26T18:54:49.780Z,29.30
2019-06-26T18:57:22.059Z,29.20
2019-06-26T18:59:53.251Z,29.20
2019-06-26T19:02:24.452Z,29.10
2019-06-26T19:04:55.644Z,29.00
2019-06-26T19:07:26.964Z,28.90
2019-06-26T19:09:58.484Z,28.80
2019-06-26T19:12:29.864Z,28.80
2019-06-26T19:15:01.001Z,28.70
2019-06-26T19:17:34.156Z,28.60
2019-06-26T19:20:07.352Z,28.50
2019-06-26T19:22:38.623Z,28.40
2019-06-26T19:25:09.859Z,28.30
2019-06-26T19:27:41.107Z,28.20
2019-06-26T19:30:13.912Z,28.10
2019-06-26T19:32:45.196Z,28.00
2019-06-26T19:35:19.142Z,27.90
2019-06-26T19:37:50.999Z,27.80
2019-06-26T19:40:24.131Z,27.70
2019-06-26T19:42:55.241Z,27.70
2019-06-26T19:45:26.911Z,27.50
2019-06-26T19:47:58.700Z,27.50
2019-06-26T19:50:30.419Z,27.40
2019-06-26T19:53:02.044Z,27.30
2019-06-26T19:55:33.528Z,27.20
2019-06-26T19:58:05.275Z,27.20
2019-06-26T20:00:36.423Z,27.10
2019-06-26T20:03:07.554Z,27.00
2019-06-26T20:05:39.405Z,26.90
2019-06-26T20:08:11.082Z,26.90
2019-06-26T20:10:42.528Z,26.80
2019-06-26T20:13:14.070Z,26.70
2019-06-26T20:15:45.739Z,26.70
2019-06-26T20:18:17.209Z,26.60
2019-06-26T20:20:50.135Z,26.50
2019-06-26T20:23:21.295Z,26.50
2019-06-26T20:25:52.572Z,26.40
2019-06-26T20:28:23.756Z,26.40
2019-06-26T20:30:54.975Z,26.30
2019-06-26T20:33:26.375Z,26.20
2019-06-26T20:35:57.728Z,26.20
2019-06-26T20:38:28.835Z,26.10
2019-06-26T20:41:00.348Z,26.10
2019-06-26T20:43:31.371Z,26.00
2019-06-26T20:46:02.620Z,25.90
2019-06-26T20:48:33.695Z,25.90
2019-06-26T20:51:04.963Z,25.80
2019-06-26T20:53:36.191Z,25.70
2019-06-26T20:56:07.647Z,25.70
2019-06-26T20:58:39.436Z,25.60
2019-06-26T21:01:12.083Z,25.60
2019-06-26T21:03:43.882Z,25.50
2019-06-26T21:06:15.127Z,25.50
2019-06-26T21:08:46.460Z,25.50
2019-06-26T21:11:17.381Z,25.40
2019-06-26T21:13:49.119Z,25.30
2019-06-26T21:16:20.483Z,25.30
2019-06-26T21:18:51.827Z,25.30
2019-06-26T21:21:23.032Z,25.30
2019-06-26T21:23:54.361Z,25.20
2019-06-26T21:26:25.679Z,25.20
2019-06-26T21:29:00.676Z,25.20
2019-06-26T21:31:29.849Z,25.20
2019-06-26T21:34:01.022Z,25.10
2019-06-26T21:36:32.204Z,25.10
2019-06-26T21:39:05.786Z,25.10
2019-06-26T21:41:36.047Z,25.10
2019-06-26T21:44:07.239Z,25.10
2019-06-26T21:46:38.375Z,25.10
2019-06-26T21:49:09.731Z,25.10
2019-06-26T21:51:41.227Z,25.00
2019-06-26T21:54:12.491Z,25.00
2019-06-26T21:57:01.681Z,25.00
2019-06-26T21:59:50.775Z,25.00
2019-06-26T22:02:39.647Z,24.90
2019-06-26T22:05:13.367Z,24.90
2019-06-26T22:07:46.406Z,24.90
2019-06-26T22:10:21.785Z,24.90
2019-06-26T22:12:53.400Z,25.00
2019-06-26T22:15:25.047Z,25.00
2019-06-26T22:17:56.055Z,25.00
2019-06-26T22:20:27.186Z,25.00
2019-06-26T22:22:58.188Z,25.00
2019-06-26T22:25:29.592Z,25.10
2019-06-26T22:28:00.739Z,25.10
2019-06-26T22:30:31.635Z,25.10
2019-06-26T22:33:03.107Z,25.10
2019-06-26T22:35:34.455Z,25.10
2019-06-26T22:38:05.399Z,25.10
2019-06-26T22:40:36.436Z,25.10
2019-06-26T22:43:07.475Z,25.10
2019-06-26T22:45:38.572Z,25.10
2019-06-26T22:48:10.219Z,25.10
2019-06-26T22:50:41.727Z,25.10
2019-06-26T22:53:12.999Z,25.10
2019-06-26T22:55:44.460Z,25.10
2019-06-26T22:58:15.385Z,25.10
2019-06-26T23:00:47.835Z,25.10
2019-06-26T23:03:20.355Z,25.10
2019-06-26T23:05:52.971Z,25.10
2019-06-26T23:08:23.991Z,25.10
2019-06-26T23:10:55.299Z,25.10
2019-06-26T23:13:26.660Z,25.10
2019-06-26T23:15:57.715Z,25.10
2019-06-26T23:18:28.888Z,25.10
2019-06-26T23:20:59.924Z,25.10
2019-06-26T23:23:30.992Z,25.10
2019-06-26T23:26:03.060Z,25.10
2019-06-26T23:28:34.420Z,25.10
2019-06-26T23:31:05.932Z,25.10
2019-06-26T23:33:36.964Z,25.10
2019-06-26T23:36:08.055Z,25.10
2019-06-26T23:38:39.300Z,25.10
2019-06-26T23:41:11.679Z,25.10
2019-06-26T23:43:42.816Z,25.10
2019-06-26T23:46:14.199Z,25.10
2019-06-26T23:48:45.883Z,25.10
2019-06-26T23:51:16.967Z,25.10
2019-06-26T23:53:47.967Z,25.00
2019-06-26T23:56:19.028Z,25.00
2019-06-26T23:58:50.279Z,25.00
